Terminal Aerodrome Forecast
Issued by NWS

Home | Current Version | Previous Version | Graphics & Text | Print | Product List | Glossary On
Versions: 1 2 3 4 5 6 7 8 9 10 11 12 13 14 15 16
000
FTUS43 KABR 132300
TAFATY
TAF
KATY 132339Z 1400/1424 22015G20KT P6SM SCT100
     FM140300 26010KT P6SM BKN060 BKN150
     FM140800 30008KT P6SM SCT150=

USA.gov is the U.S. government's official web portal to all federal, state and local government web resources and services.